createdAt,value
2023-03-31T00:00:53.714Z,8.28
2023-03-31T00:06:20.328Z,8.25
2023-03-31T00:11:46.801Z,8.21
2023-03-31T00:17:11.886Z,8.20
2023-03-31T00:22:38.847Z,8.18
2023-03-31T00:28:02.989Z,8.19
2023-03-31T00:33:27.566Z,8.24
2023-03-31T00:38:51.874Z,8.29
2023-03-31T00:44:23.317Z,8.37
2023-03-31T00:49:51.115Z,8.42
2023-03-31T00:55:24.678Z,8.45
2023-03-31T01:00:53.255Z,8.49
2023-03-31T01:06:20.188Z,8.50
2023-03-31T01:11:46.719Z,8.51
2023-03-31T01:17:12.432Z,8.48
2023-03-31T01:23:00.789Z,8.44
2023-03-31T01:28:37.196Z,8.38
2023-03-31T01:34:39.176Z,8.34
2023-03-31T01:40:24.177Z,8.35
2023-03-31T01:46:10.108Z,8.34
2023-03-31T01:51:42.116Z,8.37
2023-03-31T01:57:17.740Z,8.42
2023-03-31T02:02:44.768Z,8.45
2023-03-31T02:08:15.426Z,8.46
2023-03-31T02:13:44.812Z,8.46
2023-03-31T02:19:11.038Z,8.41
2023-03-31T02:24:39.300Z,8.35
2023-03-31T02:30:05.107Z,8.26
2023-03-31T02:35:29.181Z,8.21
2023-03-31T02:40:54.772Z,8.17
2023-03-31T02:46:18.806Z,8.14
2023-03-31T02:51:58.223Z,8.09
2023-03-31T02:57:54.576Z,7.97
2023-03-31T03:03:39.724Z,7.81
2023-03-31T03:09:22.912Z,7.75
2023-03-31T03:15:01.419Z,7.75
2023-03-31T03:20:25.118Z,7.76
2023-03-31T03:25:49.398Z,7.78
2023-03-31T03:31:14.412Z,7.84
2023-03-31T03:36:39.900Z,7.88
2023-03-31T03:42:04.801Z,7.90
2023-03-31T03:47:29.665Z,7.94
2023-03-31T03:52:53.534Z,7.96
2023-03-31T03:58:20.264Z,7.93
2023-03-31T04:03:46.435Z,7.89
2023-03-31T04:09:11.729Z,7.83
2023-03-31T04:14:36.033Z,7.71
2023-03-31T04:20:09.558Z,7.66
2023-03-31T04:25:33.748Z,7.65
2023-03-31T04:30:59.262Z,7.65
2023-03-31T04:36:23.787Z,7.65
2023-03-31T04:41:48.499Z,7.67
2023-03-31T04:47:12.152Z,7.68
2023-03-31T04:52:36.682Z,7.70
2023-03-31T04:58:00.828Z,7.76
2023-03-31T05:03:24.920Z,7.85
2023-03-31T05:08:50.367Z,7.94
2023-03-31T05:14:14.638Z,8.02
2023-03-31T05:19:38.673Z,8.15
2023-03-31T05:25:03.031Z,8.32
2023-03-31T05:30:27.283Z,8.52
2023-03-31T05:35:51.732Z,8.74
2023-03-31T05:41:17.496Z,8.97
2023-03-31T05:46:42.496Z,9.23
2023-03-31T05:52:08.381Z,9.33
2023-03-31T05:57:32.608Z,9.41
2023-03-31T06:02:57.053Z,9.55
2023-03-31T06:08:21.003Z,9.73
2023-03-31T06:13:47.251Z,9.94
2023-03-31T06:19:11.505Z,10.08
2023-03-31T06:24:35.362Z,10.18
2023-03-31T06:29:59.143Z,10.22
2023-03-31T06:35:23.272Z,10.27
2023-03-31T06:40:47.612Z,10.27
2023-03-31T06:46:13.046Z,10.28
2023-03-31T06:51:37.921Z,10.41
2023-03-31T06:57:02.011Z,10.62
2023-03-31T07:02:26.733Z,10.82
2023-03-31T07:07:51.140Z,10.97
2023-03-31T07:13:16.865Z,11.07
2023-03-31T07:18:42.778Z,11.26
2023-03-31T07:24:07.509Z,11.42
2023-03-31T07:29:31.884Z,11.66
2023-03-31T07:34:56.308Z,11.86
2023-03-31T07:40:26.581Z,11.98
2023-03-31T07:45:51.172Z,11.99
2023-03-31T07:51:19.558Z,12.23
2023-03-31T07:56:44.269Z,12.52
2023-03-31T08:02:11.164Z,12.62
2023-03-31T08:07:37.149Z,12.85
2023-03-31T08:13:01.589Z,13.01
2023-03-31T08:18:26.059Z,12.98
2023-03-31T08:23:54.737Z,12.86
2023-03-31T08:29:19.471Z,12.81
2023-03-31T08:34:44.141Z,12.90
2023-03-31T08:40:14.741Z,13.01
2023-03-31T08:45:47.179Z,13.25
2023-03-31T08:51:23.373Z,13.42
2023-03-31T08:56:51.695Z,13.43
2023-03-31T09:02:42.478Z,13.46
2023-03-31T09:08:12.142Z,13.52
2023-03-31T09:14:05.457Z,13.75
2023-03-31T09:19:56.547Z,14.31
2023-03-31T09:25:26.639Z,14.64
2023-03-31T09:30:52.574Z,14.70
2023-03-31T09:36:20.419Z,14.66
2023-03-31T09:41:50.888Z,14.67
2023-03-31T09:47:42.973Z,14.46
2023-03-31T09:53:15.286Z,14.13
2023-03-31T09:58:44.734Z,13.84
2023-03-31T10:04:10.120Z,13.58
2023-03-31T10:09:38.693Z,13.39
2023-03-31T10:15:34.351Z,13.31
2023-03-31T10:20:58.955Z,13.57
2023-03-31T10:26:27.136Z,13.94
2023-03-31T10:31:52.052Z,14.19
2023-03-31T10:37:21.040Z,14.39
2023-03-31T10:42:50.337Z,14.56
2023-03-31T10:48:35.328Z,14.87
2023-03-31T10:54:03.769Z,14.94
2023-03-31T10:59:59.855Z,15.04
2023-03-31T11:05:31.422Z,14.76
2023-03-31T11:10:59.666Z,14.46
2023-03-31T11:16:50.656Z,14.41
2023-03-31T11:22:53.122Z,14.44
2023-03-31T11:28:35.633Z,14.52
2023-03-31T11:34:45.424Z,14.51
2023-03-31T11:40:09.862Z,14.19
2023-03-31T11:45:40.990Z,14.08
2023-03-31T11:51:12.386Z,14.21
2023-03-31T11:56:40.892Z,14.47
2023-03-31T12:02:18.509Z,14.47
2023-03-31T12:08:01.674Z,14.34
2023-03-31T12:13:56.704Z,14.15
2023-03-31T12:19:23.156Z,13.88
2023-03-31T12:24:47.778Z,13.70
2023-03-31T12:30:17.734Z,13.60
2023-03-31T12:36:21.791Z,13.45
2023-03-31T12:42:11.848Z,13.36
2023-03-31T12:47:41.760Z,13.22
2023-03-31T12:53:36.296Z,13.10
2023-03-31T12:59:18.858Z,12.97
2023-03-31T13:04:43.720Z,12.81
2023-03-31T13:10:22.000Z,12.57
2023-03-31T13:15:56.227Z,12.32
2023-03-31T13:21:20.721Z,12.21
2023-03-31T13:26:47.968Z,12.15
2023-03-31T13:32:18.647Z,12.07
2023-03-31T13:38:07.561Z,11.94
2023-03-31T13:44:05.341Z,11.85
2023-03-31T13:49:56.959Z,11.93
2023-03-31T13:55:35.153Z,12.01
2023-03-31T14:01:36.360Z,11.96
2023-03-31T14:07:17.088Z,11.89
2023-03-31T14:12:42.193Z,11.93
2023-03-31T14:18:08.201Z,11.94
2023-03-31T14:24:11.577Z,11.81
2023-03-31T14:29:47.600Z,11.63
2023-03-31T14:35:24.471Z,11.45
2023-03-31T14:40:54.182Z,11.30
2023-03-31T14:46:22.495Z,11.22
2023-03-31T14:51:47.134Z,11.17
2023-03-31T14:57:13.128Z,11.15
2023-03-31T15:02:41.424Z,11.11
2023-03-31T15:08:18.717Z,11.04
2023-03-31T15:14:01.011Z,11.01
2023-03-31T15:19:35.325Z,11.02
2023-03-31T15:25:02.566Z,10.98
2023-03-31T15:30:29.209Z,10.96
2023-03-31T15:35:53.781Z,11.01
2023-03-31T15:41:29.011Z,11.13
2023-03-31T15:47:02.301Z,11.25
2023-03-31T15:52:36.702Z,11.31
2023-03-31T15:58:02.254Z,11.33
2023-03-31T16:03:38.864Z,11.42
2023-03-31T16:09:24.808Z,11.44
2023-03-31T16:14:55.654Z,11.34
2023-03-31T16:20:22.316Z,11.25
2023-03-31T16:25:47.445Z,11.52
2023-03-31T16:31:34.850Z,11.82
2023-03-31T16:36:59.905Z,11.82
2023-03-31T16:42:25.162Z,11.73
2023-03-31T16:47:53.082Z,11.58
2023-03-31T16:53:22.513Z,11.50
2023-03-31T16:58:46.581Z,11.40
2023-03-31T17:04:11.339Z,11.19
2023-03-31T17:09:35.851Z,10.99
2023-03-31T17:15:00.893Z,10.85
2023-03-31T17:20:28.407Z,10.69
2023-03-31T17:25:58.499Z,10.55
2023-03-31T17:31:28.078Z,10.47
2023-03-31T17:36:55.370Z,10.47
2023-03-31T17:42:20.904Z,10.45
2023-03-31T17:47:49.204Z,10.42
2023-03-31T17:53:17.690Z,10.33
2023-03-31T17:58:42.829Z,10.24
2023-03-31T18:04:07.825Z,10.14
2023-03-31T18:09:31.875Z,10.05
2023-03-31T18:14:57.059Z,9.97
2023-03-31T18:20:21.325Z,9.93
2023-03-31T18:25:49.070Z,9.92
2023-03-31T18:31:15.556Z,9.94
2023-03-31T18:36:40.424Z,9.95
2023-03-31T18:42:07.249Z,9.92
2023-03-31T18:47:31.334Z,9.89
2023-03-31T18:52:55.711Z,9.85
2023-03-31T18:58:21.556Z,9.79
2023-03-31T19:03:47.609Z,9.68
2023-03-31T19:09:12.256Z,9.52
2023-03-31T19:14:36.870Z,9.34
2023-03-31T19:20:00.963Z,9.24
2023-03-31T19:25:25.032Z,9.17
2023-03-31T19:30:56.822Z,9.13
2023-03-31T19:36:21.639Z,9.10
2023-03-31T19:41:48.853Z,9.08
2023-03-31T19:47:13.391Z,9.07
2023-03-31T19:52:38.228Z,9.03
2023-03-31T19:58:02.709Z,8.99
2023-03-31T20:03:28.724Z,8.95
2023-03-31T20:08:59.747Z,8.88
2023-03-31T20:14:26.551Z,8.77
2023-03-31T20:44:57.371Z,8.58
2023-03-31T20:50:23.261Z,8.54
2023-03-31T20:55:47.325Z,8.51
2023-03-31T21:01:12.811Z,8.46
2023-03-31T21:06:42.724Z,8.43
2023-03-31T21:12:07.510Z,8.39
2023-03-31T21:17:32.129Z,8.35
2023-03-31T21:22:57.659Z,8.35
2023-03-31T21:28:25.584Z,8.38
2023-03-31T21:33:49.946Z,8.39
2023-03-31T21:39:13.975Z,8.41
2023-03-31T21:44:38.172Z,8.45
2023-03-31T21:50:03.182Z,8.48
2023-03-31T21:55:27.782Z,8.50
2023-03-31T22:00:52.445Z,8.50
2023-03-31T22:06:17.139Z,8.51
2023-03-31T22:11:41.214Z,8.51
2023-03-31T22:17:05.680Z,8.50
2023-03-31T22:22:30.537Z,8.50
2023-03-31T22:27:55.057Z,8.51
2023-03-31T22:33:19.446Z,8.52
2023-03-31T22:38:43.161Z,8.53
2023-03-31T22:44:07.550Z,8.55
2023-03-31T22:49:31.471Z,8.56
2023-03-31T22:54:56.508Z,8.57
2023-03-31T23:00:21.256Z,8.56
2023-03-31T23:05:45.374Z,8.54
2023-03-31T23:11:12.764Z,8.51
2023-03-31T23:16:37.081Z,8.50
2023-03-31T23:22:02.817Z,8.47
2023-03-31T23:27:27.337Z,8.45
2023-03-31T23:32:53.002Z,8.44
2023-03-31T23:38:17.543Z,8.43
2023-03-31T23:43:41.591Z,8.44
2023-03-31T23:49:08.013Z,8.43
2023-03-31T23:54:31.979Z,8.42
2023-03-31T23:59:56.668Z,8.41
